Time;durP1;ratioP1;P1;durP2;ratioP2;P2;SDS_P1;SDS_P2;PMS_P1;PMS_P2;Temp;Humidity;BMP_temperature;BMP_pressure;BME280_temperature;BME280_humidity;BME280_pressure;Samples;Min_cycle;Max_cycle;Signal;HPM_P1;HPM_P2
2022/02/24 00:00:09;;;;;;;6.33;5.70;;;7.10;55.40;;;;;;5076860;28;20221;-87
2022/02/24 00:02:35;;;;;;;7.03;6.53;;;7.10;55.00;;;;;;5089530;28;20178;-79
2022/02/24 00:05:01;;;;;;;6.97;6.47;;;7.10;55.40;;;;;;5080929;28;20442;-79
2022/02/24 00:07:26;;;;;;;6.70;6.30;;;7.10;54.90;;;;;;5084989;28;20210;-79
2022/02/24 00:09:52;;;;;;;7.37;6.77;;;7.10;54.70;;;;;;5085469;28;20189;-79
2022/02/24 00:12:19;;;;;;;6.60;6.20;;;7.20;54.50;;;;;;5084298;28;20335;-79
2022/02/24 00:14:45;;;;;;;6.20;5.90;;;7.20;54.80;;;;;;5082748;28;20185;-79
2022/02/24 00:17:11;;;;;;;6.40;6.00;;;7.20;54.40;;;;;;5085137;28;20481;-79
2022/02/24 00:19:37;;;;;;;6.50;6.20;;;7.30;55.20;;;;;;5081859;28;20436;-79
2022/02/24 00:22:03;;;;;;;6.67;6.30;;;7.30;55.00;;;;;;5080469;28;20192;-79
2022/02/24 00:24:29;;;;;;;8.03;7.53;;;7.30;54.90;;;;;;5084270;28;20421;-79
2022/02/24 00:26:55;;;;;;;6.53;6.03;;;7.30;55.00;;;;;;5094929;28;20463;-79
2022/02/24 00:29:20;;;;;;;5.90;5.60;;;7.40;54.60;;;;;;5079561;28;20745;-79
2022/02/24 00:31:46;;;;;;;5.50;5.20;;;7.40;54.20;;;;;;5086517;28;20630;-79
2022/02/24 00:34:12;;;;;;;5.57;5.27;;;7.50;53.20;;;;;;5101722;28;20175;-79
2022/02/24 00:36:38;;;;;;;6.03;5.73;;;7.60;52.50;;;;;;5078527;28;20227;-79
2022/02/24 00:39:04;;;;;;;4.80;4.60;;;7.60;52.70;;;;;;5089243;28;20807;-79
2022/02/24 00:41:29;;;;;;;5.40;5.20;;;7.70;51.80;;;;;;5077244;28;20527;-79
2022/02/24 00:43:55;;;;;;;5.37;4.97;;;7.80;51.50;;;;;;5090064;28;20170;-79
2022/02/24 00:46:21;;;;;;;4.70;4.50;;;7.80;50.90;;;;;;5084159;28;20182;-79
2022/02/24 00:48:47;;;;;;;5.93;5.63;;;7.80;50.60;;;;;;5086478;28;20638;-79
2022/02/24 00:51:12;;;;;;;5.40;5.10;;;7.90;50.60;;;;;;5077737;28;20525;-79
2022/02/24 00:53:41;;;;;;;6.37;5.73;;;7.80;50.60;;;;;;5097027;28;20510;-79
2022/02/24 00:56:08;;;;;;;6.07;4.90;;;7.80;50.50;;;;;;5081174;28;20529;-79
2022/02/24 00:58:34;;;;;;;5.77;5.37;;;7.80;50.50;;;;;;5087981;28;20922;-79
2022/02/24 01:00:59;;;;;;;6.20;5.77;;;7.80;51.10;;;;;;5090671;28;20423;-79
2022/02/24 01:03:25;;;;;;;5.03;4.83;;;7.90;50.70;;;;;;5081596;28;20378;-79
2022/02/24 01:05:51;;;;;;;5.23;4.93;;;7.90;50.60;;;;;;5081029;28;20234;-79
2022/02/24 01:08:16;;;;;;;6.17;5.80;;;7.90;50.50;;;;;;5083610;28;20684;-79
2022/02/24 01:10:42;;;;;;;6.10;5.80;;;7.90;50.60;;;;;;5082502;28;20178;-79
2022/02/24 01:13:08;;;;;;;6.53;5.97;;;8.00;50.00;;;;;;5080232;28;20650;-78
2022/02/24 01:15:38;;;;;;;5.47;5.17;;;8.00;50.00;;;;;;5077737;28;20174;-86
2022/02/24 01:18:04;;;;;;;5.97;5.63;;;8.10;50.80;;;;;;5082256;28;20330;-86
2022/02/24 01:20:30;;;;;;;5.77;5.47;;;8.10;50.80;;;;;;5090470;28;20454;-86
2022/02/24 01:22:56;;;;;;;5.60;5.10;;;8.10;50.90;;;;;;5079036;28;20427;-87
2022/02/24 01:25:21;;;;;;;5.90;5.50;;;8.10;50.80;;;;;;5088340;28;20186;-87
2022/02/24 01:27:47;;;;;;;5.77;5.47;;;8.00;50.70;;;;;;5077496;28;20206;-87
2022/02/24 01:30:13;;;;;;;5.30;5.00;;;8.10;50.90;;;;;;5085242;28;20247;-87
2022/02/24 01:32:39;;;;;;;6.00;5.70;;;8.10;50.80;;;;;;5074085;28;20214;-86
2022/02/24 01:35:05;;;;;;;5.30;5.00;;;8.10;50.80;;;;;;5083133;28;20464;-88
2022/02/24 01:37:31;;;;;;;4.93;4.73;;;8.10;50.80;;;;;;5087675;28;20439;-79
2022/02/24 01:39:56;;;;;;;6.90;6.40;;;8.00;50.80;;;;;;5072181;28;20951;-79
2022/02/24 01:42:22;;;;;;;5.47;5.17;;;7.90;51.20;;;;;;5085760;28;20182;-79
2022/02/24 01:44:48;;;;;;;5.47;5.17;;;7.90;51.40;;;;;;5080957;28;20228;-79
2022/02/24 01:47:14;;;;;;;6.73;6.33;;;7.90;51.20;;;;;;5078843;28;20671;-79
2022/02/24 01:49:41;;;;;;;5.63;5.37;;;7.90;51.10;;;;;;5082383;28;20210;-79
2022/02/24 01:52:09;;;;;;;5.60;5.30;;;8.00;51.40;;;;;;5085260;28;20798;-79
2022/02/24 01:54:35;;;;;;;6.07;5.67;;;7.90;52.10;;;;;;5104248;28;20415;-87
2022/02/24 01:57:01;;;;;;;6.53;6.23;;;7.90;52.60;;;;;;5078287;28;20420;-87
2022/02/24 01:59:27;;;;;;;6.10;5.80;;;7.90;51.90;;;;;;5091432;28;20518;-87
2022/02/24 02:01:53;;;;;;;6.10;5.80;;;7.70;53.40;;;;;;5093491;28;20514;-87
2022/02/24 02:04:19;;;;;;;5.93;5.63;;;7.70;53.40;;;;;;5083626;28;20428;-79
2022/02/24 02:06:45;;;;;;;4.97;4.77;;;7.70;53.20;;;;;;5089838;28;20858;-79
2022/02/24 02:09:11;;;;;;;5.57;5.17;;;7.60;53.30;;;;;;5072516;28;20179;-79
2022/02/24 02:11:37;;;;;;;5.30;5.00;;;7.60;53.60;;;;;;5079745;28;20433;-79
2022/02/24 02:14:03;;;;;;;6.07;5.57;;;7.70;53.10;;;;;;5075838;28;20436;-79
2022/02/24 02:16:29;;;;;;;5.90;5.63;;;7.60;53.10;;;;;;5085859;28;20961;-79
2022/02/24 02:18:55;;;;;;;5.33;5.03;;;7.70;53.20;;;;;;5083552;28;20416;-79
2022/02/24 02:21:21;;;;;;;6.10;5.80;;;7.60;53.20;;;;;;5072090;28;20183;-79
2022/02/24 02:23:47;;;;;;;6.20;5.87;;;7.60;53.60;;;;;;5079046;28;20273;-79
2022/02/24 02:26:12;;;;;;;6.47;6.17;;;7.60;53.40;;;;;;5077827;28;20556;-79
2022/02/24 02:28:38;;;;;;;6.30;5.90;;;7.60;53.60;;;;;;5074856;28;20460;-79
2022/02/24 02:31:04;;;;;;;6.20;5.90;;;7.60;53.90;;;;;;5082784;28;20205;-79
2022/02/24 02:33:30;;;;;;;5.70;5.30;;;7.60;53.20;;;;;;5086833;28;20327;-79
2022/02/24 02:35:56;;;;;;;5.80;5.23;;;7.70;53.00;;;;;;5083537;28;20533;-79
2022/02/24 02:38:21;;;;;;;6.23;5.97;;;7.60;52.50;;;;;;5082832;28;20654;-79
2022/02/24 02:40:47;;;;;;;6.13;5.73;;;7.60;53.00;;;;;;5076591;28;20560;-79
2022/02/24 02:43:13;;;;;;;6.60;6.23;;;7.60;53.40;;;;;;5085518;28;20663;-79
2022/02/24 02:45:38;;;;;;;6.17;5.87;;;7.60;53.40;;;;;;5090514;28;20227;-79
2022/02/24 02:48:05;;;;;;;5.80;5.50;;;7.60;53.50;;;;;;5088336;28;20213;-78
2022/02/24 02:50:32;;;;;;;6.70;6.30;;;7.60;53.60;;;;;;5072959;28;20592;-78
2022/02/24 02:53:02;;;;;;;6.87;6.30;;;7.60;53.60;;;;;;5085350;28;20434;-79
2022/02/24 02:55:28;;;;;;;8.00;7.50;;;7.60;53.30;;;;;;5077702;28;20446;-78
2022/02/24 02:57:54;;;;;;;6.83;6.53;;;7.60;53.50;;;;;;5082650;28;20432;-78
2022/02/24 03:00:20;;;;;;;6.40;6.00;;;7.60;53.20;;;;;;5079214;28;20484;-78
2022/02/24 03:02:46;;;;;;;6.13;5.83;;;7.60;53.70;;;;;;5082816;28;20623;-78
2022/02/24 03:05:11;;;;;;;6.60;6.00;;;7.50;53.10;;;;;;5074584;28;20444;-86
2022/02/24 03:07:37;;;;;;;7.40;6.90;;;7.50;53.60;;;;;;5082951;28;20205;-86
2022/02/24 03:10:04;;;;;;;6.57;6.10;;;7.60;53.20;;;;;;5090592;28;20428;-87
2022/02/24 03:12:35;;;;;;;7.13;6.53;;;7.60;53.30;;;;;;5076722;28;20543;-78
2022/02/24 03:15:13;;;;;;;7.90;6.93;;;7.60;53.70;;;;;;5086397;28;20498;-78
2022/02/24 03:17:43;;;;;;;6.53;6.20;;;7.60;53.70;;;;;;5078806;28;20460;-78
2022/02/24 03:20:10;;;;;;;6.20;5.90;;;7.60;53.00;;;;;;5084399;28;20837;-78
2022/02/24 03:22:36;;;;;;;7.00;6.60;;;7.60;53.40;;;;;;5076324;28;20433;-78
2022/02/24 03:25:03;;;;;;;6.07;5.67;;;7.60;52.80;;;;;;5079757;28;20710;-86
2022/02/24 03:27:29;;;;;;;6.50;6.20;;;7.70;53.10;;;;;;5074738;28;20494;-86
2022/02/24 03:29:55;;;;;;;6.87;6.40;;;7.70;53.50;;;;;;5080042;28;20424;-86
2022/02/24 03:32:21;;;;;;;7.03;6.63;;;7.60;52.90;;;;;;5086604;28;20820;-86
2022/02/24 03:34:46;;;;;;;7.00;6.50;;;7.70;53.40;;;;;;5080553;28;20192;-86
2022/02/24 03:37:12;;;;;;;5.87;5.67;;;7.70;53.30;;;;;;5082729;28;20614;-86
2022/02/24 03:39:38;;;;;;;6.10;5.90;;;7.70;53.60;;;;;;5086302;28;20551;-87
2022/02/24 03:42:04;;;;;;;6.80;6.40;;;7.70;53.70;;;;;;5088403;28;20231;-86
2022/02/24 03:44:30;;;;;;;6.20;5.90;;;7.70;53.20;;;;;;5078827;28;20546;-86
2022/02/24 03:46:55;;;;;;;6.20;5.60;;;7.70;52.80;;;;;;5095847;28;20512;-86
2022/02/24 03:49:21;;;;;;;6.03;5.77;;;7.80;53.20;;;;;;5083957;28;20182;-86
2022/02/24 03:51:47;;;;;;;6.60;6.00;;;7.80;53.20;;;;;;5077362;28;20181;-78
2022/02/24 03:54:12;;;;;;;7.40;7.00;;;7.80;52.90;;;;;;5079931;28;20171;-78
2022/02/24 03:56:38;;;;;;;7.07;6.60;;;7.70;53.00;;;;;;5093986;27;20181;-78
2022/02/24 03:59:04;;;;;;;7.60;7.10;;;7.80;53.30;;;;;;5091341;27;20267;-78
2022/02/24 04:01:30;;;;;;;6.60;6.20;;;7.70;53.40;;;;;;5089118;28;20194;-78
2022/02/24 04:03:55;;;;;;;7.50;7.10;;;7.70;53.00;;;;;;5084361;27;20432;-86
2022/02/24 04:06:21;;;;;;;6.50;6.00;;;7.70;53.70;;;;;;5093816;28;20198;-86
2022/02/24 04:08:47;;;;;;;6.80;6.40;;;7.80;53.50;;;;;;5081566;27;20213;-86
2022/02/24 04:11:12;;;;;;;7.60;6.77;;;7.80;53.30;;;;;;5092581;28;20634;-85
2022/02/24 04:13:38;;;;;;;9.63;8.77;;;7.70;52.90;;;;;;5086592;27;20273;-85
2022/02/24 04:16:04;;;;;;;6.13;5.83;;;7.70;54.10;;;;;;5087356;27;20197;-86
2022/02/24 04:18:30;;;;;;;6.90;6.50;;;7.80;54.40;;;;;;5095768;28;20679;-86
2022/02/24 04:20:56;;;;;;;6.10;5.70;;;7.80;53.90;;;;;;5081505;27;20814;-86
2022/02/24 04:23:21;;;;;;;6.90;6.30;;;7.90;52.10;;;;;;5093798;28;20255;-86
2022/02/24 04:25:47;;;;;;;6.00;5.70;;;7.90;52.00;;;;;;5082096;28;20551;-86
2022/02/24 04:28:13;;;;;;;6.97;6.40;;;8.00;51.90;;;;;;5092502;28;20201;-86
2022/02/24 04:30:39;;;;;;;6.33;6.00;;;8.00;51.70;;;;;;5091300;28;20434;-86
2022/02/24 04:33:04;;;;;;;5.87;5.63;;;8.00;51.70;;;;;;5093912;28;20269;-86
2022/02/24 04:35:30;;;;;;;6.13;5.93;;;8.00;52.00;;;;;;5086651;28;20281;-86
2022/02/24 04:37:55;;;;;;;6.73;6.33;;;8.00;51.70;;;;;;5094978;27;20256;-86
2022/02/24 04:40:21;;;;;;;6.73;6.33;;;8.00;51.40;;;;;;5085893;28;20579;-86
2022/02/24 04:42:47;;;;;;;6.50;6.20;;;7.90;51.40;;;;;;5082423;28;20189;-86
2022/02/24 04:45:12;;;;;;;6.37;5.97;;;7.90;51.00;;;;;;5091236;27;20174;-78
2022/02/24 04:47:38;;;;;;;7.00;6.60;;;7.90;50.80;;;;;;5094548;27;20571;-78
2022/02/24 04:50:08;;;;;;;6.50;6.03;;;7.90;52.40;;;;;;5087339;28;20537;-78
2022/02/24 04:52:34;;;;;;;6.40;6.10;;;7.80;52.30;;;;;;5094588;28;20618;-78
2022/02/24 04:55:00;;;;;;;6.40;6.00;;;7.90;53.10;;;;;;5090117;27;20430;-78
2022/02/24 04:57:27;;;;;;;7.17;6.77;;;7.90;52.70;;;;;;5089223;28;20489;-78
2022/02/24 04:59:52;;;;;;;6.07;5.87;;;7.90;53.00;;;;;;5096456;27;20193;-77
2022/02/24 05:02:18;;;;;;;6.60;6.20;;;7.90;53.10;;;;;;5084970;28;20424;-78
2022/02/24 05:04:43;;;;;;;6.80;6.30;;;7.80;53.30;;;;;;5105534;27;20269;-78
2022/02/24 05:07:09;;;;;;;6.80;6.23;;;7.80;53.40;;;;;;5082123;28;20205;-77
2022/02/24 05:09:35;;;;;;;6.97;6.63;;;7.80;54.00;;;;;;5096817;27;20174;-77
2022/02/24 05:12:01;;;;;;;7.50;6.90;;;7.80;53.70;;;;;;5094391;27;20177;-77
2022/02/24 05:14:27;;;;;;;7.20;6.80;;;7.80;53.50;;;;;;5094412;28;20460;-77
2022/02/24 05:16:52;;;;;;;6.70;6.40;;;7.80;52.80;;;;;;5097116;28;20407;-77
2022/02/24 05:19:18;;;;;;;7.00;6.60;;;7.80;53.00;;;;;;5101538;28;20174;-77
2022/02/24 05:21:43;;;;;;;7.23;6.73;;;7.80;53.10;;;;;;5085903;28;20178;-77
2022/02/24 05:24:09;;;;;;;8.37;7.77;;;7.70;53.70;;;;;;5088625;27;20192;-77
2022/02/24 05:26:37;;;;;;;7.93;7.43;;;7.70;53.60;;;;;;5080234;28;20546;-79
2022/02/24 05:29:03;;;;;;;7.67;7.20;;;7.70;54.30;;;;;;5088199;27;20176;-79
2022/02/24 05:31:28;;;;;;;7.40;7.00;;;7.70;54.40;;;;;;5080085;28;20848;-79
2022/02/24 05:33:54;;;;;;;6.63;6.33;;;7.70;54.60;;;;;;5084818;28;20186;-79
2022/02/24 05:36:20;;;;;;;8.87;8.17;;;7.60;54.70;;;;;;5084648;28;20182;-79
2022/02/24 05:38:45;;;;;;;7.20;6.80;;;7.60;54.70;;;;;;5079637;28;20270;-78
2022/02/24 05:41:11;;;;;;;7.10;6.70;;;7.50;54.80;;;;;;5079612;28;20556;-79
2022/02/24 05:43:37;;;;;;;7.80;7.30;;;7.50;55.10;;;;;;5086876;28;20189;-78
2022/02/24 05:46:02;;;;;;;7.23;6.73;;;7.50;55.00;;;;;;5082603;27;20181;-77
2022/02/24 05:48:28;;;;;;;8.00;7.60;;;7.50;55.60;;;;;;5080600;28;20206;-77
2022/02/24 05:50:54;;;;;;;7.10;6.70;;;7.50;55.00;;;;;;5081879;28;20518;-78
2022/02/24 05:53:20;;;;;;;8.30;7.70;;;7.40;55.40;;;;;;5095474;28;20208;-78
2022/02/24 05:55:45;;;;;;;8.53;8.13;;;7.40;55.30;;;;;;5095452;28;20212;-78
2022/02/24 05:58:11;;;;;;;7.83;7.43;;;7.40;55.90;;;;;;5095018;28;20181;-78
2022/02/24 06:00:36;;;;;;;8.80;8.20;;;7.40;55.60;;;;;;5096053;28;20655;-78
2022/02/24 06:03:02;;;;;;;8.77;8.27;;;7.40;55.80;;;;;;5105394;28;20190;-78
2022/02/24 06:05:28;;;;;;;9.00;8.20;;;7.40;55.80;;;;;;5091336;27;20173;-77
2022/02/24 06:07:54;;;;;;;8.80;8.23;;;7.40;56.00;;;;;;5098429;28;20205;-78
2022/02/24 06:10:19;;;;;;;8.73;8.20;;;7.40;56.00;;;;;;5099641;27;20176;-78
2022/02/24 06:12:45;;;;;;;8.87;8.40;;;7.40;56.00;;;;;;5078914;28;20182;-79
2022/02/24 06:15:11;;;;;;;9.73;8.83;;;7.40;55.90;;;;;;5090494;28;20177;-79
2022/02/24 06:17:37;;;;;;;8.57;8.07;;;7.40;55.50;;;;;;5080484;28;20204;-80
2022/02/24 06:20:04;;;;;;;8.90;8.30;;;7.30;56.20;;;;;;5093968;28;20437;-78
2022/02/24 06:22:30;;;;;;;8.70;8.00;;;7.40;56.00;;;;;;5089469;28;20436;-79
2022/02/24 06:24:56;;;;;;;8.70;8.13;;;7.30;56.10;;;;;;5094360;27;20494;-77
2022/02/24 06:27:21;;;;;;;8.17;7.67;;;7.30;56.40;;;;;;5089395;27;20201;-76
2022/02/24 06:29:47;;;;;;;8.80;8.30;;;7.30;56.40;;;;;;5089983;28;20178;-77
2022/02/24 06:32:14;;;;;;;9.10;8.50;;;7.20;56.60;;;;;;5083500;28;20233;-84
2022/02/24 06:34:40;;;;;;;9.40;8.90;;;7.20;56.50;;;;;;5088478;28;20495;-84
2022/02/24 06:37:07;;;;;;;9.60;8.80;;;7.10;56.70;;;;;;5081986;28;20522;-84
2022/02/24 06:39:33;;;;;;;8.57;8.07;;;7.20;57.20;;;;;;5088545;28;20446;-85
2022/02/24 06:41:58;;;;;;;10.60;9.73;;;7.20;56.60;;;;;;5081716;28;20433;-85
2022/02/24 06:44:24;;;;;;;9.90;9.10;;;7.10;56.70;;;;;;5079917;28;20428;-85
2022/02/24 06:46:50;;;;;;;9.80;9.20;;;7.20;56.70;;;;;;5085930;28;20189;-85
2022/02/24 06:49:15;;;;;;;10.90;10.10;;;7.30;56.70;;;;;;5085788;28;20174;-85
2022/02/24 06:51:41;;;;;;;9.60;8.80;;;7.30;55.90;;;;;;5079647;28;20541;-85
2022/02/24 06:54:07;;;;;;;10.17;9.50;;;7.30;56.60;;;;;;5083280;28;20174;-85
2022/02/24 06:56:33;;;;;;;9.33;8.73;;;7.30;56.10;;;;;;5085348;28;20549;-85
2022/02/24 06:58:59;;;;;;;9.87;9.07;;;7.30;56.20;;;;;;5105711;28;20430;-84
2022/02/24 07:01:25;;;;;;;10.20;9.40;;;7.40;56.10;;;;;;5087308;28;20435;-84
2022/02/24 07:03:51;;;;;;;9.33;8.63;;;7.40;55.70;;;;;;5085078;28;20182;-84
2022/02/24 07:06:17;;;;;;;10.40;9.60;;;7.30;55.90;;;;;;5089513;28;20535;-84
2022/02/24 07:08:42;;;;;;;10.33;9.43;;;7.30;56.20;;;;;;5085399;27;20807;-84
2022/02/24 07:11:08;;;;;;;9.00;8.40;;;7.30;56.20;;;;;;5092455;28;20790;-85
2022/02/24 07:13:34;;;;;;;8.50;7.87;;;7.40;56.30;;;;;;5087677;28;20187;-84
2022/02/24 07:15:59;;;;;;;10.37;9.47;;;7.50;54.60;;;;;;5089865;27;20217;-84
2022/02/24 07:18:25;;;;;;;8.37;7.77;;;7.50;55.50;;;;;;5086352;28;20178;-84
2022/02/24 07:20:50;;;;;;;8.13;7.43;;;7.50;55.50;;;;;;5088257;27;20240;-84
2022/02/24 07:23:16;;;;;;;10.60;9.60;;;7.60;55.20;;;;;;5085860;27;20187;-84
2022/02/24 07:25:42;;;;;;;10.10;9.50;;;7.50;55.10;;;;;;5085516;28;20627;-85
2022/02/24 07:28:08;;;;;;;10.57;9.67;;;7.50;55.70;;;;;;5086911;28;20202;-84
2022/02/24 07:30:40;;;;;;;10.43;9.57;;;7.50;55.50;;;;;;5087647;28;20183;-83
2022/02/24 07:33:05;;;;;;;10.60;9.70;;;7.50;55.10;;;;;;5089587;27;20422;-84
2022/02/24 07:35:32;;;;;;;10.20;9.50;;;7.50;55.30;;;;;;5084256;28;20501;-84
2022/02/24 07:37:58;;;;;;;9.37;8.67;;;7.50;55.10;;;;;;5093797;27;20184;-83
2022/02/24 07:40:23;;;;;;;9.43;6.50;;;7.50;55.60;;;;;;5083433;28;20416;-83
2022/02/24 07:42:50;;;;;;;8.17;7.57;;;7.60;55.60;;;;;;5089087;28;20632;-83
2022/02/24 07:45:17;;;;;;;10.50;9.70;;;7.60;55.40;;;;;;5093045;28;20212;-84
2022/02/24 07:47:42;;;;;;;8.87;8.27;;;7.70;55.20;;;;;;5096071;27;20546;-85
2022/02/24 07:50:13;;;;;;;9.43;8.47;;;7.70;55.30;;;;;;5090870;28;21006;-85
2022/02/24 07:52:43;;;;;;;11.27;10.40;;;7.80;55.00;;;;;;5106638;27;20178;-85
2022/02/24 07:55:10;;;;;;;11.10;10.10;;;7.90;55.10;;;;;;5091753;27;20409;-85
2022/02/24 07:57:38;;;;;;;10.87;9.97;;;7.90;54.30;;;;;;5098348;27;20428;-87
2022/02/24 08:00:07;;;;;;;10.30;9.60;;;7.90;54.10;;;;;;5091555;28;20435;-85
2022/02/24 08:02:33;;;;;;;9.97;9.20;;;8.00;53.60;;;;;;5088459;28;20436;-85
2022/02/24 08:04:59;;;;;;;9.27;8.33;;;8.20;52.80;;;;;;5093955;27;20458;-85
2022/02/24 08:07:25;;;;;;;10.73;9.90;;;8.20;52.20;;;;;;5086489;28;20499;-85
2022/02/24 08:09:51;;;;;;;11.03;10.07;;;8.20;52.50;;;;;;5085878;28;20182;-85
2022/02/24 08:15:00;;;;;;;10.20;9.50;;;8.30;51.60;;;;;;5113056;27;20180;-84
2022/02/24 08:17:26;;;;;;;7.47;7.07;;;8.40;51.00;;;;;;5092704;27;20860;-84
2022/02/24 08:19:52;;;;;;;9.90;9.27;;;8.40;51.40;;;;;;5094121;27;20182;-84
2022/02/24 08:22:19;;;;;;;14.73;8.60;;;8.40;51.70;;;;;;5086462;28;20484;-84
2022/02/24 08:24:45;;;;;;;9.00;8.13;;;8.30;50.90;;;;;;5094257;28;20425;-84
2022/02/24 08:27:11;;;;;;;9.00;8.30;;;8.30;51.00;;;;;;5091993;27;20461;-84
2022/02/24 08:29:36;;;;;;;8.27;7.60;;;8.40;50.70;;;;;;5087102;28;20183;-85
2022/02/24 08:32:02;;;;;;;10.27;8.17;;;8.40;51.00;;;;;;5090136;28;20182;-84
2022/02/24 08:34:28;;;;;;;9.23;8.53;;;8.50;49.80;;;;;;5084035;28;20179;-83
2022/02/24 08:36:53;;;;;;;9.50;8.90;;;8.60;50.60;;;;;;5095377;27;20424;-77
2022/02/24 08:39:19;;;;;;;9.83;9.03;;;8.70;50.70;;;;;;5084359;28;20179;-77
2022/02/24 08:41:45;;;;;;;10.30;9.40;;;8.70;49.40;;;;;;5096033;27;20579;-77
2022/02/24 08:44:12;;;;;;;8.87;8.23;;;8.70;49.50;;;;;;5085551;28;20421;-78
2022/02/24 08:46:38;;;;;;;7.83;7.33;;;8.70;50.00;;;;;;5096780;27;20179;-77
2022/02/24 08:49:03;;;;;;;8.43;7.83;;;8.80;49.40;;;;;;5090140;28;21213;-77
2022/02/24 08:51:29;;;;;;;9.97;7.60;;;8.90;49.50;;;;;;5083576;28;20547;-77
2022/02/24 08:53:55;;;;;;;7.37;6.90;;;8.90;49.40;;;;;;5081934;27;20324;-77
2022/02/24 08:56:20;;;;;;;7.20;6.60;;;9.10;48.10;;;;;;5078111;28;20220;-77
2022/02/24 08:58:46;;;;;;;7.60;7.10;;;9.20;47.70;;;;;;5084536;27;20504;-77
2022/02/24 09:01:12;;;;;;;6.40;6.00;;;9.20;47.70;;;;;;5089267;28;20166;-77
2022/02/24 09:03:38;;;;;;;6.97;6.57;;;9.30;47.90;;;;;;5081248;28;20689;-77
2022/02/24 09:06:03;;;;;;;8.23;7.50;;;9.30;47.70;;;;;;5089809;27;20173;-80
2022/02/24 09:08:29;;;;;;;7.70;7.00;;;9.30;47.50;;;;;;5089271;27;20197;-78
2022/02/24 09:10:55;;;;;;;6.97;6.50;;;9.30;48.20;;;;;;5103649;27;20174;-77
2022/02/24 09:13:21;;;;;;;8.50;8.00;;;9.40;47.10;;;;;;5087876;28;20427;-84
2022/02/24 09:15:46;;;;;;;6.63;6.10;;;9.50;47.80;;;;;;5084984;28;20221;-84
2022/02/24 09:18:12;;;;;;;6.63;6.10;;;9.60;47.20;;;;;;5097964;28;20212;-83
2022/02/24 09:20:39;;;;;;;6.60;6.10;;;9.70;46.30;;;;;;5103639;28;20176;-83
2022/02/24 09:23:04;;;;;;;6.00;5.43;;;9.80;46.30;;;;;;5080792;28;20189;-82
2022/02/24 09:25:30;;;;;;;6.43;6.00;;;9.90;46.00;;;;;;5096091;28;20423;-82
2022/02/24 09:27:56;;;;;;;5.70;5.27;;;10.00;45.30;;;;;;5096109;28;20225;-82
2022/02/24 09:30:22;;;;;;;7.17;6.77;;;10.10;44.70;;;;;;5113143;28;20529;-76
2022/02/24 09:32:47;;;;;;;5.60;5.10;;;10.20;43.80;;;;;;5093260;28;20564;-77
2022/02/24 09:35:17;;;;;;;6.37;5.97;;;10.20;44.00;;;;;;5093578;28;20900;-77
2022/02/24 09:37:43;;;;;;;5.50;5.20;;;10.20;44.20;;;;;;5093345;28;20657;-78
2022/02/24 09:40:11;;;;;;;6.20;5.70;;;10.20;43.90;;;;;;5093385;28;20416;-78
2022/02/24 09:42:37;;;;;;;13.43;5.30;;;10.30;43.80;;;;;;5092948;28;20426;-78
2022/02/24 09:45:04;;;;;;;7.10;6.50;;;10.40;42.60;;;;;;5094080;28;20416;-78
2022/02/24 09:47:31;;;;;;;5.53;5.03;;;10.40;43.00;;;;;;5093823;28;20467;-78
2022/02/24 09:50:01;;;;;;;5.73;5.33;;;10.50;42.00;;;;;;5093943;28;20971;-77
2022/02/24 09:52:27;;;;;;;5.53;5.13;;;10.60;42.00;;;;;;5095006;28;20470;-78
2022/02/24 09:54:52;;;;;;;5.67;5.40;;;10.70;40.60;;;;;;5113707;28;20408;-78
2022/02/24 09:57:18;;;;;;;7.90;5.57;;;10.80;40.00;;;;;;5095367;28;20181;-78
2022/02/24 09:59:44;;;;;;;4.93;4.60;;;10.80;39.90;;;;;;5095034;28;20622;-77
2022/02/24 10:02:12;;;;;;;6.00;5.70;;;10.90;39.20;;;;;;5095055;28;20188;-77
2022/02/24 10:04:57;;;;;;;5.77;5.27;;;11.00;40.30;;;;;;5095214;28;20182;-78
2022/02/24 10:07:26;;;;;;;5.70;5.37;;;11.00;39.50;;;;;;5094661;28;20816;-78
2022/02/24 10:09:52;;;;;;;5.27;5.07;;;11.20;39.40;;;;;;5094905;28;20412;-78
2022/02/24 10:12:17;;;;;;;5.50;5.03;;;11.30;39.10;;;;;;5094627;28;20446;-78
2022/02/24 10:14:43;;;;;;;6.33;5.93;;;11.40;38.80;;;;;;5094429;28;20261;-77
2022/02/24 10:17:09;;;;;;;5.73;5.40;;;11.50;38.30;;;;;;5094382;28;20200;-76
2022/02/24 10:19:43;;;;;;;4.97;4.80;;;11.60;38.50;;;;;;5094493;28;20216;-77
2022/02/24 10:22:19;;;;;;;6.40;5.77;;;11.80;37.30;;;;;;5094456;28;20172;-77
2022/02/24 10:24:58;;;;;;;5.23;5.03;;;11.80;37.50;;;;;;5094321;28;20991;-76
2022/02/24 10:27:26;;;;;;;4.93;4.73;;;11.90;37.00;;;;;;5094372;28;20462;-76
2022/02/24 10:29:52;;;;;;;8.63;5.00;;;12.10;36.10;;;;;;5094338;28;20415;-76
2022/02/24 10:32:33;;;;;;;5.00;4.70;;;12.30;34.30;;;;;;5094248;28;20415;-76
2022/02/24 10:35:26;;;;;;;6.87;5.13;;;12.50;33.70;;;;;;5094367;28;20408;-77
2022/02/24 10:38:02;;;;;;;5.50;5.10;;;12.40;34.40;;;;;;5094341;28;20770;-77
2022/02/24 10:40:31;;;;;;;5.20;4.80;;;12.40;34.80;;;;;;5094497;28;20417;-77
2022/02/24 10:43:29;;;;;;;4.87;4.57;;;12.50;33.30;;;;;;5093672;28;20822;-76
2022/02/24 10:46:05;;;;;;;5.63;5.30;;;12.40;34.20;;;;;;5093920;28;20412;-76
2022/02/24 10:48:32;;;;;;;4.20;4.00;;;12.40;32.80;;;;;;5094437;28;20503;-77
2022/02/24 10:51:05;;;;;;;4.57;4.33;;;12.40;33.70;;;;;;5113158;28;20410;-77
2022/02/24 10:53:35;;;;;;;4.53;4.30;;;12.40;33.70;;;;;;5094047;28;20412;-77
2022/02/24 10:56:01;;;;;;;4.87;4.60;;;12.40;33.60;;;;;;5094293;28;20511;-77
2022/02/24 10:58:47;;;;;;;5.13;4.80;;;12.50;33.70;;;;;;5094132;28;20620;-77
2022/02/24 11:01:18;;;;;;;5.60;5.10;;;12.50;33.70;;;;;;5093695;28;20235;-77
2022/02/24 11:03:46;;;;;;;5.43;5.00;;;12.40;34.50;;;;;;5093796;28;20422;-77
2022/02/24 11:06:14;;;;;;;4.90;4.67;;;12.50;33.70;;;;;;5094132;28;20598;-77
2022/02/24 11:08:43;;;;;;;5.13;4.83;;;12.50;33.70;;;;;;5093871;28;20502;-77
2022/02/24 11:11:09;;;;;;;4.67;4.43;;;12.60;33.70;;;;;;5094079;28;20407;-77
2022/02/24 11:13:35;;;;;;;6.10;5.63;;;12.60;33.80;;;;;;5093688;28;20858;-77
2022/02/24 11:16:02;;;;;;;5.50;5.00;;;12.70;33.40;;;;;;5093886;28;20420;-77
2022/02/24 11:18:29;;;;;;;6.40;5.93;;;12.70;33.90;;;;;;5093943;28;20420;-78
2022/02/24 11:20:56;;;;;;;5.47;5.10;;;12.80;34.20;;;;;;5094063;28;20443;-77
2022/02/24 11:23:22;;;;;;;4.40;4.20;;;12.80;34.00;;;;;;5093705;28;20778;-77
2022/02/24 11:26:00;;;;;;;4.77;4.57;;;13.00;33.40;;;;;;5093853;28;20477;-78
2022/02/24 11:28:31;;;;;;;4.80;4.37;;;13.10;32.50;;;;;;5093768;28;20998;-77
2022/02/24 11:31:05;;;;;;;4.50;4.20;;;13.30;31.50;;;;;;5093941;28;20760;-79
2022/02/24 11:33:32;;;;;;;4.27;3.97;;;13.40;30.70;;;;;;5093986;28;20422;-79
2022/02/24 11:36:14;;;;;;;4.80;3.87;;;13.50;29.70;;;;;;5093922;28;20420;-77
2022/02/24 11:38:40;;;;;;;4.63;4.33;;;13.40;29.80;;;;;;5093667;28;20487;-77
2022/02/24 11:41:08;;;;;;;3.60;3.30;;;13.50;29.70;;;;;;5093808;28;20430;-77
2022/02/24 11:43:35;;;;;;;4.93;4.50;;;13.40;29.50;;;;;;5093266;28;20426;-77
2022/02/24 11:46:06;;;;;;;4.20;4.00;;;13.50;29.30;;;;;;5093994;28;20565;-78
2022/02/24 11:48:36;;;;;;;4.37;4.17;;;13.60;28.50;;;;;;5093617;28;20470;-78
2022/02/24 11:51:07;;;;;;;4.17;4.07;;;13.70;29.20;;;;;;5093866;28;20419;-77
2022/02/24 11:53:39;;;;;;;4.47;4.17;;;13.70;28.80;;;;;;5093419;28;20942;-77
2022/02/24 11:56:15;;;;;;;4.00;3.57;;;13.70;27.70;;;;;;5096081;28;20900;-77
2022/02/24 11:58:58;;;;;;;4.50;4.20;;;13.70;28.40;;;;;;5097071;28;20874;-76
2022/02/24 12:01:43;;;;;;;4.10;3.80;;;13.70;27.30;;;;;;5097218;28;20434;-77
2022/02/24 12:04:17;;;;;;;4.23;3.93;;;13.60;27.40;;;;;;5096981;28;20454;-77
2022/02/24 12:06:56;;;;;;;4.27;3.97;;;13.50;27.30;;;;;;5097120;28;20419;-82
2022/02/24 12:09:22;;;;;;;3.70;3.50;;;13.50;28.30;;;;;;5097183;28;20423;-83
2022/02/24 12:11:56;;;;;;;4.60;4.30;;;13.60;27.60;;;;;;5096935;28;20923;-82
2022/02/24 12:14:24;;;;;;;4.40;4.10;;;13.70;27.00;;;;;;5096908;28;20908;-82
2022/02/24 12:17:03;;;;;;;4.80;4.40;;;13.60;27.20;;;;;;5096729;28;20522;-83
2022/02/24 12:19:49;;;;;;;4.50;4.20;;;13.60;27.00;;;;;;5096704;28;20442;-83
2022/02/24 12:22:14;;;;;;;4.63;4.33;;;13.60;28.00;;;;;;5079455;28;20811;-84
2022/02/24 12:24:44;;;;;;;4.17;3.87;;;13.70;27.00;;;;;;5096121;28;20472;-83
2022/02/24 12:27:26;;;;;;;4.50;4.20;;;13.70;27.10;;;;;;5083192;28;20452;-83
2022/02/24 12:30:21;;;;;;;4.23;4.00;;;13.80;27.40;;;;;;5075407;28;20421;-84
2022/02/24 12:32:52;;;;;;;4.90;4.17;;;13.80;27.10;;;;;;5108982;28;20413;-83
2022/02/24 12:35:21;;;;;;;4.20;3.90;;;13.70;27.00;;;;;;5077048;28;20432;-83
2022/02/24 12:37:49;;;;;;;4.30;4.00;;;13.70;27.30;;;;;;5077119;28;20443;-83
2022/02/24 12:40:24;;;;;;;4.80;3.77;;;13.70;27.10;;;;;;5076856;28;20409;-84
2022/02/24 12:42:50;;;;;;;3.83;3.63;;;13.70;27.00;;;;;;5076723;28;20777;-83
2022/02/24 12:45:20;;;;;;;4.30;4.00;;;13.70;27.20;;;;;;5076738;28;20412;-84
2022/02/24 12:47:54;;;;;;;4.47;4.07;;;13.50;28.20;;;;;;5076687;28;20705;-84
2022/02/24 12:50:36;;;;;;;7.70;4.40;;;13.50;28.40;;;;;;5076733;28;20436;-85
2022/02/24 12:53:20;;;;;;;4.17;3.87;;;13.50;28.30;;;;;;5076078;28;20412;-84
2022/02/24 12:55:46;;;;;;;5.33;4.93;;;13.40;27.90;;;;;;5094798;28;20427;-84